Time;durP1;ratioP1;P1;durP2;ratioP2;P2;SDS_P1;SDS_P2;PMS_P1;PMS_P2;Temp;Humidity;BMP_temperature;BMP_pressure;BME280_temperature;BME280_humidity;BME280_pressure;Samples;Min_cycle;Max_cycle;Signal;HPM_P1;HPM_P2
2021/07/05 00:01:19;;;;;;;12.47;9.30;;;;;;;13.66;68.90;96647.50;1823941;77;28085;-83
2021/07/05 00:03:46;;;;;;;12.43;9.18;;;;;;;13.63;68.94;96648.03;1823039;77;25704;-84
2021/07/05 00:06:12;;;;;;;10.10;8.78;;;;;;;13.58;68.97;96646.05;1821306;78;25658;-83
2021/07/05 00:08:39;;;;;;;11.73;9.08;;;;;;;13.58;68.96;96652.00;1821469;77;26136;-83
2021/07/05 00:11:05;;;;;;;15.30;8.58;;;;;;;13.55;69.05;96649.78;1821433;77;26336;-84
2021/07/05 00:13:33;;;;;;;10.93;9.30;;;;;;;13.44;69.07;96641.21;1821462;78;28140;-83
2021/07/05 00:16:00;;;;;;;11.00;9.13;;;;;;;13.30;69.21;96646.97;1813440;77;25908;-83
2021/07/05 00:18:27;;;;;;;10.35;8.83;;;;;;;13.27;69.56;96652.91;1790481;77;26329;-82
2021/07/05 00:20:53;;;;;;;13.40;9.60;;;;;;;13.28;69.61;96640.97;1812685;77;25709;-83
2021/07/05 00:23:21;;;;;;;10.63;9.53;;;;;;;13.30;69.68;96640.72;1812424;77;25693;-83
2021/07/05 00:25:47;;;;;;;14.30;9.90;;;;;;;13.27;69.73;96642.59;1812717;79;28072;-83
2021/07/05 00:28:14;;;;;;;14.38;9.38;;;;;;;13.21;69.84;96644.38;1812731;77;25841;-85
2021/07/05 00:30:41;;;;;;;10.13;9.05;;;;;;;13.23;70.02;96648.21;1812821;77;25686;-84
2021/07/05 00:33:08;;;;;;;13.10;9.35;;;;;;;13.23;69.95;96641.44;1812753;79;26284;-84
2021/07/05 00:35:36;;;;;;;13.70;9.83;;;;;;;13.18;69.99;96646.23;1812770;77;25717;-84
2021/07/05 00:38:03;;;;;;;10.95;9.38;;;;;;;13.14;70.08;96645.09;1812794;77;28068;-84
2021/07/05 00:40:30;;;;;;;12.28;8.65;;;;;;;13.17;70.13;96645.94;1812679;79;25248;-84
2021/07/05 00:42:58;;;;;;;17.35;8.93;;;;;;;13.18;70.18;96647.58;1812722;79;25773;-84
2021/07/05 00:45:27;;;;;;;11.20;8.68;;;;;;;13.17;70.10;96648.64;1812796;78;25759;-83
2021/07/05 00:47:53;;;;;;;13.45;9.28;;;;;;;13.15;70.09;96650.80;1812994;77;26276;-84
2021/07/05 00:50:24;;;;;;;12.15;9.18;;;;;;;13.15;70.06;96645.92;1812978;77;28394;-84
2021/07/05 00:52:54;;;;;;;11.05;9.43;;;;;;;13.12;70.09;96652.61;1812969;79;25677;-84
2021/07/05 00:55:23;;;;;;;10.65;9.53;;;;;;;13.12;70.07;96654.50;1812882;77;25650;-84
2021/07/05 00:57:50;;;;;;;11.55;9.53;;;;;;;13.10;70.09;96653.39;1812911;79;25673;-84
2021/07/05 01:00:21;;;;;;;11.20;9.08;;;;;;;13.09;70.07;96650.38;1812887;77;25808;-84
2021/07/05 01:02:49;;;;;;;13.43;10.05;;;;;;;13.07;70.14;96643.03;1812967;77;27348;-84
2021/07/05 01:05:16;;;;;;;13.45;9.65;;;;;;;13.05;70.28;96650.58;1812739;77;26272;-84
2021/07/05 01:07:45;;;;;;;13.45;9.53;;;;;;;12.93;70.19;96640.34;1812809;77;25655;-84
2021/07/05 01:10:14;;;;;;;12.85;8.90;;;;;;;12.83;70.34;96641.53;1812938;78;26297;-84
2021/07/05 01:12:42;;;;;;;13.22;9.18;;;;;;;12.70;70.50;96641.83;1812896;77;25709;-84
2021/07/05 01:15:13;;;;;;;10.40;9.13;;;;;;;12.72;70.83;96647.30;1812646;78;27466;-84
2021/07/05 01:17:41;;;;;;;15.93;9.58;;;;;;;12.77;70.86;96646.58;1812476;77;25859;-84
2021/07/05 01:20:12;;;;;;;11.22;9.28;;;;;;;12.79;70.83;96645.27;1806327;79;25708;-84
2021/07/05 01:22:38;;;;;;;14.40;9.35;;;;;;;12.77;70.88;96643.34;1812832;79;26530;-84
2021/07/05 01:25:09;;;;;;;10.93;9.38;;;;;;;12.78;70.92;96648.22;1812974;77;25613;-84
2021/07/05 01:27:36;;;;;;;13.18;9.60;;;;;;;12.76;70.97;96643.58;1812794;77;27343;-84
2021/07/05 01:30:05;;;;;;;10.72;9.05;;;;;;;12.75;70.99;96641.94;1805667;79;25745;-84
2021/07/05 01:32:32;;;;;;;11.33;9.23;;;;;;;12.74;70.96;96640.28;1790012;79;26163;-84
2021/07/05 01:34:58;;;;;;;12.03;8.98;;;;;;;12.73;70.95;96642.70;1812904;78;26306;-84
2021/07/05 01:37:25;;;;;;;11.97;9.53;;;;;;;12.67;70.93;96641.80;1807139;79;25483;-84
2021/07/05 01:39:52;;;;;;;10.50;8.65;;;;;;;12.70;70.95;96643.18;1788855;79;27422;-84
2021/07/05 01:42:20;;;;;;;9.40;8.43;;;;;;;12.67;70.94;96644.52;1800105;79;25224;-84
2021/07/05 01:44:47;;;;;;;10.72;9.35;;;;;;;12.60;70.95;96639.23;1790081;77;25713;-84
2021/07/05 01:47:14;;;;;;;12.07;9.43;;;;;;;12.57;71.14;96639.70;1812849;79;25886;-84
2021/07/05 01:49:44;;;;;;;12.93;8.78;;;;;;;12.55;71.16;96639.16;1812805;79;25686;-84
2021/07/05 01:52:08;;;;;;;10.28;8.55;;;;;;;12.54;71.19;96646.98;1787115;77;27515;-85
2021/07/05 01:54:35;;;;;;;11.12;8.58;;;;;;;12.49;71.18;96645.52;1781323;79;25863;-84
2021/07/05 01:57:02;;;;;;;9.75;8.78;;;;;;;12.48;71.12;96649.81;1812817;79;25627;-84
2021/07/05 01:59:29;;;;;;;10.08;8.18;;;;;;;12.47;71.16;96646.81;1812742;79;26532;-85
2021/07/05 02:01:55;;;;;;;10.45;9.05;;;;;;;12.44;71.12;96649.47;1812818;79;25740;-84
2021/07/05 02:04:27;;;;;;;10.95;8.50;;;;;;;12.43;71.27;96646.50;1812749;77;28390;-84
2021/07/05 02:06:54;;;;;;;11.88;8.68;;;;;;;12.42;71.21;96648.91;1812463;79;25662;-85
2021/07/05 02:09:20;;;;;;;12.58;9.30;;;;;;;12.41;71.20;96652.68;1796884;77;25647;-84
2021/07/05 02:11:47;;;;;;;10.08;8.53;;;;;;;12.37;71.28;96649.33;1780616;79;25790;-84
2021/07/05 02:14:14;;;;;;;11.30;9.00;;;;;;;12.32;71.34;96656.80;1793803;79;25718;-85
2021/07/05 02:16:40;;;;;;;10.63;9.40;;;;;;;12.27;71.42;96656.73;1820216;77;27449;-84
2021/07/05 02:19:07;;;;;;;11.05;9.45;;;;;;;12.27;71.56;96656.73;1821194;78;25732;-84
2021/07/05 02:21:34;;;;;;;13.93;9.73;;;;;;;12.27;71.61;96660.78;1821428;77;25768;-84
2021/07/05 02:24:01;;;;;;;11.95;9.73;;;;;;;12.27;71.68;96652.66;1821349;77;25822;-84
2021/07/05 02:26:28;;;;;;;13.13;10.25;;;;;;;12.26;71.67;96665.91;1821377;78;25724;-85
2021/07/05 02:28:56;;;;;;;11.88;8.80;;;;;;;12.24;71.72;96662.61;1821206;77;27409;-83
2021/07/05 02:31:22;;;;;;;11.10;9.50;;;;;;;12.20;71.77;96663.61;1832326;77;25828;-83
2021/07/05 02:33:49;;;;;;;12.28;9.35;;;;;;;12.19;71.79;96662.52;1826669;77;26071;-84
2021/07/05 02:36:15;;;;;;;12.00;9.35;;;;;;;12.17;71.76;96671.41;1821364;78;25832;-84
2021/07/05 02:38:42;;;;;;;9.20;8.30;;;;;;;12.14;71.75;96669.17;1821509;78;25768;-84
2021/07/05 02:41:09;;;;;;;15.40;8.63;;;;;;;12.12;71.75;96669.41;1821258;78;27405;-84
2021/07/05 02:43:35;;;;;;;13.72;9.43;;;;;;;12.11;71.81;96679.92;1811190;77;25808;-83
2021/07/05 02:46:02;;;;;;;12.95;8.60;;;;;;;12.05;71.82;96678.72;1788630;78;25758;-84
2021/07/05 02:48:31;;;;;;;11.10;8.63;;;;;;;12.05;72.03;96678.72;1803677;77;25844;-84
2021/07/05 02:51:03;;;;;;;11.60;9.70;;;;;;;12.06;72.03;96672.25;1821298;78;25732;-84
2021/07/05 02:53:29;;;;;;;13.38;9.38;;;;;;;12.02;72.02;96682.72;1821733;77;27641;-84
2021/07/05 02:55:56;;;;;;;16.00;8.70;;;;;;;11.98;72.10;96682.06;1821353;77;25818;-84
2021/07/05 02:58:24;;;;;;;12.28;9.58;;;;;;;11.96;72.19;96680.95;1821160;78;25689;-84
2021/07/05 03:00:55;;;;;;;13.53;10.25;;;;;;;11.97;72.34;96679.06;1821413;78;25811;-84
2021/07/05 03:03:23;;;;;;;12.30;10.13;;;;;;;11.88;72.35;96679.97;1821318;78;25721;-83
2021/07/05 03:05:51;;;;;;;16.00;9.73;;;;;;;11.88;72.61;96681.32;1821292;77;28452;-83
2021/07/05 03:08:18;;;;;;;14.53;10.08;;;;;;;11.90;72.73;96684.09;1821236;77;25702;-84
2021/07/05 03:10:45;;;;;;;13.28;10.03;;;;;;;11.88;72.69;96688.91;1821341;78;25748;-84
2021/07/05 03:13:16;;;;;;;15.60;10.75;;;;;;;11.85;72.82;96696.13;1821208;78;26548;-84
2021/07/05 03:15:44;;;;;;;12.25;9.88;;;;;;;11.83;72.99;96702.30;1818319;78;25743;-83
2021/07/05 03:18:12;;;;;;;11.55;10.18;;;;;;;11.82;73.11;96696.62;1812522;79;27453;-84
2021/07/05 03:20:46;;;;;;;12.55;9.65;;;;;;;11.85;73.15;96698.84;1812391;77;25655;-84
2021/07/05 03:23:16;;;;;;;14.30;10.45;;;;;;;11.85;73.24;96698.84;1812768;79;25825;-84
2021/07/05 03:25:44;;;;;;;12.98;10.63;;;;;;;11.84;73.26;96699.89;1812687;79;26454;-85
2021/07/05 03:28:15;;;;;;;14.80;10.65;;;;;;;11.87;73.37;96704.02;1812737;79;25674;-85
2021/07/05 03:30:44;;;;;;;11.88;10.40;;;;;;;11.88;73.55;96695.67;1812738;78;28161;-85
2021/07/05 03:33:10;;;;;;;15.85;9.80;;;;;;;11.85;73.66;96698.02;1812597;79;25761;-83
2021/07/05 03:35:38;;;;;;;16.27;9.75;;;;;;;11.82;73.69;96693.92;1812646;79;25737;-84
2021/07/05 03:38:06;;;;;;;12.58;10.13;;;;;;;11.87;73.80;96696.72;1812573;79;26260;-84
2021/07/05 03:40:36;;;;;;;16.23;11.25;;;;;;;11.90;73.88;96701.66;1812735;79;25819;-83
2021/07/05 03:43:04;;;;;;;13.55;9.95;;;;;;;11.95;73.92;96700.14;1780790;79;28168;-84
2021/07/05 03:45:33;;;;;;;15.35;10.45;;;;;;;11.99;73.96;96694.53;1780500;79;25718;-84
2021/07/05 03:48:01;;;;;;;16.67;10.88;;;;;;;12.05;73.97;96699.01;1788888;79;25766;-84
2021/07/05 03:50:29;;;;;;;12.43;9.75;;;;;;;12.10;74.00;96705.86;1812765;78;26674;-83
2021/07/05 03:52:56;;;;;;;12.23;10.72;;;;;;;12.11;73.97;96699.39;1812698;79;25539;-83
2021/07/05 03:55:25;;;;;;;14.50;10.38;;;;;;;12.18;73.92;96704.16;1812690;77;28194;-83
2021/07/05 03:57:52;;;;;;;11.18;9.88;;;;;;;12.20;73.92;96706.08;1812659;79;25235;-83
2021/07/05 04:00:24;;;;;;;13.72;10.65;;;;;;;12.23;73.94;96703.72;1812641;79;25241;-83
2021/07/05 04:02:50;;;;;;;11.50;10.10;;;;;;;12.26;73.99;96700.55;1813002;77;25733;-83
2021/07/05 04:05:17;;;;;;;14.80;10.58;;;;;;;12.30;74.02;96702.25;1790982;79;25722;-83
2021/07/05 04:07:45;;;;;;;11.38;10.13;;;;;;;12.35;74.07;96707.75;1801072;79;28358;-83
2021/07/05 04:10:13;;;;;;;17.73;10.63;;;;;;;12.39;74.13;96704.88;1812592;78;25793;-83
2021/07/05 04:12:41;;;;;;;12.93;11.00;;;;;;;12.44;74.27;96704.95;1812695;79;25642;-83
2021/07/05 04:15:09;;;;;;;15.32;10.78;;;;;;;12.49;74.35;96707.78;1812660;79;26435;-83
2021/07/05 04:17:36;;;;;;;14.20;10.98;;;;;;;12.55;74.35;96714.13;1820690;78;25749;-83
2021/07/05 04:20:10;;;;;;;16.02;11.40;;;;;;;12.63;74.42;96718.63;1821286;77;27384;-82
2021/07/05 04:22:37;;;;;;;19.15;12.05;;;;;;;12.70;74.44;96715.77;1821045;78;25705;-84
2021/07/05 04:25:08;;;;;;;16.25;12.00;;;;;;;12.79;74.48;96709.45;1821272;78;25224;-83
2021/07/05 04:27:35;;;;;;;18.12;12.58;;;;;;;12.89;74.55;96713.70;1820971;77;25767;-83
2021/07/05 04:30:03;;;;;;;13.88;11.55;;;;;;;12.98;74.68;96708.17;1821340;78;25750;-83
2021/07/05 04:32:29;;;;;;;13.60;11.85;;;;;;;13.06;74.70;96704.23;1826054;77;27481;-85
2021/07/05 04:34:56;;;;;;;15.68;12.30;;;;;;;13.14;74.78;96711.48;1821244;78;25668;-83
2021/07/05 04:37:23;;;;;;;18.20;11.60;;;;;;;13.22;74.75;96708.36;1821289;78;25649;-83
2021/07/05 04:39:50;;;;;;;16.30;12.03;;;;;;;13.30;74.76;96707.13;1825077;77;25865;-83
2021/07/05 04:42:16;;;;;;;14.53;11.38;;;;;;;13.38;74.77;96708.63;1824168;77;25827;-83
2021/07/05 04:44:43;;;;;;;16.48;11.12;;;;;;;13.45;74.74;96705.21;1811518;77;28393;-83
2021/07/05 04:47:12;;;;;;;15.98;12.37;;;;;;;13.52;74.79;96697.75;1788918;78;25960;-83
2021/07/05 04:49:38;;;;;;;12.85;11.25;;;;;;;13.59;74.88;96699.75;1819180;77;25654;-83
2021/07/05 04:52:05;;;;;;;13.55;11.85;;;;;;;13.65;74.82;96705.52;1821246;78;25803;-83
2021/07/05 04:54:31;;;;;;;17.92;11.40;;;;;;;13.72;74.80;96704.02;1821165;78;26429;-84
2021/07/05 04:56:58;;;;;;;16.12;12.37;;;;;;;13.80;74.89;96704.94;1821298;78;27383;-84
2021/07/05 04:59:25;;;;;;;13.65;11.43;;;;;;;13.86;74.87;96700.72;1798404;78;25708;-84
2021/07/05 05:01:52;;;;;;;18.30;11.63;;;;;;;13.93;74.81;96697.28;1821233;78;26414;-83
2021/07/05 05:04:18;;;;;;;16.67;11.57;;;;;;;14.00;74.86;96696.58;1826428;77;25673;-83
2021/07/05 05:06:45;;;;;;;16.10;12.13;;;;;;;14.08;74.92;96695.32;1820640;78;25853;-83
2021/07/05 05:09:12;;;;;;;15.48;11.88;;;;;;;14.16;74.96;96698.95;1821024;78;28274;-83
2021/07/05 05:11:38;;;;;;;15.20;12.82;;;;;;;14.23;75.02;96694.71;1820178;78;25875;-83
2021/07/05 05:14:05;;;;;;;15.78;12.63;;;;;;;14.29;74.88;96693.16;1821077;77;25763;-83
2021/07/05 05:16:32;;;;;;;19.40;12.93;;;;;;;14.37;74.81;96698.67;1802078;77;26392;-83
2021/07/05 05:18:59;;;;;;;18.12;13.20;;;;;;;14.41;74.98;96691.70;1821129;77;26348;-83
2021/07/05 05:21:25;;;;;;;16.67;14.05;;;;;;;14.52;75.04;96700.79;1821096;77;27494;-82
2021/07/05 05:23:52;;;;;;;17.17;13.88;;;;;;;14.62;75.06;96707.70;1820380;77;25714;-83
2021/07/05 05:26:18;;;;;;;19.02;13.85;;;;;;;14.69;75.07;96707.80;1831825;77;25807;-83
2021/07/05 05:28:45;;;;;;;15.55;13.00;;;;;;;14.78;75.03;96705.45;1821201;78;25769;-83
2021/07/05 05:31:12;;;;;;;19.23;14.18;;;;;;;14.87;75.01;96708.52;1826754;77;25684;-83
2021/07/05 05:33:38;;;;;;;12.98;11.68;;;;;;;14.96;74.97;96702.94;1818555;77;28287;-83
2021/07/05 05:36:05;;;;;;;15.30;11.70;;;;;;;15.05;74.69;96704.93;1810598;78;25736;-83
2021/07/05 05:38:32;;;;;;;13.40;11.95;;;;;;;15.14;74.23;96705.28;1821318;77;25627;-83
2021/07/05 05:40:59;;;;;;;13.55;11.33;;;;;;;15.24;74.19;96704.02;1821462;78;25894;-83
2021/07/05 05:43:25;;;;;;;20.10;12.05;;;;;;;15.33;74.09;96709.28;1805731;77;25820;-84
2021/07/05 05:45:52;;;;;;;14.33;11.05;;;;;;;15.43;73.95;96706.66;1814129;78;27411;-83
2021/07/05 05:48:19;;;;;;;15.80;11.30;;;;;;;15.53;73.76;96703.73;1821366;78;25736;-83
2021/07/05 05:50:45;;;;;;;15.05;11.25;;;;;;;15.62;73.93;96704.91;1821481;78;25913;-83
2021/07/05 05:53:12;;;;;;;12.70;11.03;;;;;;;15.72;73.87;96705.81;1821358;78;25753;-84
2021/07/05 05:55:43;;;;;;;12.47;11.12;;;;;;;15.80;73.67;96696.36;1821553;77;25696;-83
2021/07/05 05:58:07;;;;;;;12.20;10.90;;;;;;;15.89;73.59;96696.14;1821827;77;27539;-83
2021/07/05 06:00:33;;;;;;;13.93;10.58;;;;;;;16.00;73.61;96695.13;1821377;77;25764;-83
2021/07/05 06:03:00;;;;;;;13.00;10.82;;;;;;;16.15;73.48;96692.50;1821205;78;26500;-83
2021/07/05 06:05:26;;;;;;;11.55;10.23;;;;;;;16.30;73.23;96690.38;1821292;78;25774;-83
2021/07/05 06:07:53;;;;;;;12.45;11.15;;;;;;;16.43;73.10;96694.52;1821503;77;26380;-83
2021/07/05 06:10:23;;;;;;;13.13;10.50;;;;;;;16.53;72.89;96689.96;1821631;78;27386;-83
2021/07/05 06:12:52;;;;;;;15.13;11.08;;;;;;;16.64;72.56;96689.48;1821579;78;27476;-83
2021/07/05 06:15:20;;;;;;;14.78;10.98;;;;;;;16.75;72.33;96693.06;1821361;77;25658;-83
2021/07/05 06:17:48;;;;;;;12.85;10.65;;;;;;;16.88;72.01;96695.28;1821546;77;25739;-83
2021/07/05 06:20:14;;;;;;;15.63;10.78;;;;;;;17.03;71.79;96687.13;1822027;77;25706;-83
2021/07/05 06:22:55;;;;;;;14.15;10.68;;;;;;;17.16;71.58;96693.96;1822059;77;27616;-83
2021/07/05 06:25:23;;;;;;;13.03;11.18;;;;;;;17.25;71.43;96695.91;1821623;78;25833;-85
2021/07/05 06:27:50;;;;;;;15.83;10.35;;;;;;;17.37;71.12;96688.02;1822028;78;25902;-82
2021/07/05 06:30:18;;;;;;;12.30;10.30;;;;;;;17.46;70.75;96684.46;1821680;77;26614;-83
2021/07/05 06:32:45;;;;;;;13.20;10.72;;;;;;;17.60;70.68;96688.29;1822015;77;25727;-83
2021/07/05 06:35:14;;;;;;;13.55;10.60;;;;;;;17.70;70.32;96688.03;1821981;78;27516;-83
2021/07/05 06:37:41;;;;;;;12.37;10.53;;;;;;;17.78;70.03;96677.92;1821838;78;25650;-83
2021/07/05 06:40:09;;;;;;;14.85;9.88;;;;;;;17.89;69.87;96675.45;1821913;78;25697;-83
2021/07/05 06:42:37;;;;;;;11.75;10.55;;;;;;;17.97;69.63;96669.45;1817547;78;26621;-83
2021/07/05 06:45:06;;;;;;;13.70;10.28;;;;;;;18.07;69.43;96670.79;1789514;78;25711;-83
2021/07/05 06:47:33;;;;;;;13.65;10.60;;;;;;;18.17;69.15;96670.75;1791629;78;27533;-84
2021/07/05 06:49:59;;;;;;;14.70;9.83;;;;;;;18.29;69.03;96674.55;1821910;78;26070;-84
2021/07/05 06:52:28;;;;;;;12.15;10.20;;;;;;;18.41;68.80;96668.77;1822068;77;25755;-83
2021/07/05 06:54:54;;;;;;;11.97;9.48;;;;;;;18.52;68.58;96670.36;1822108;77;25772;-83
2021/07/05 06:57:30;;;;;;;12.63;9.88;;;;;;;18.67;68.53;96672.52;1822006;77;25752;-85
2021/07/05 06:59:58;;;;;;;9.85;8.88;;;;;;;18.83;68.11;96671.91;1821912;78;28322;-82
2021/07/05 07:02:25;;;;;;;14.13;10.13;;;;;;;18.99;67.45;96669.33;1821858;78;25969;-82
2021/07/05 07:04:52;;;;;;;13.68;8.98;;;;;;;19.10;67.30;96667.90;1821790;77;25732;-83
2021/07/05 07:07:19;;;;;;;9.65;8.75;;;;;;;19.23;67.51;96669.45;1821849;77;26621;-82
2021/07/05 07:09:45;;;;;;;12.85;9.75;;;;;;;19.33;67.09;96663.08;1821838;78;25708;-82
2021/07/05 07:12:12;;;;;;;10.10;8.25;;;;;;;19.42;66.78;96660.84;1821872;77;27581;-83
2021/07/05 07:14:38;;;;;;;10.93;8.30;;;;;;;19.55;66.55;96660.78;1821741;78;26283;-83
2021/07/05 07:17:08;;;;;;;12.85;8.68;;;;;;;19.66;66.27;96655.48;1818688;78;25704;-83
2021/07/05 07:19:33;;;;;;;9.00;8.03;;;;;;;19.74;65.81;96653.48;1812411;77;26297;-84
2021/07/05 07:22:03;;;;;;;9.35;8.35;;;;;;;19.86;65.69;96648.98;1812872;78;25834;-86
2021/07/05 07:24:28;;;;;;;10.65;9.38;;;;;;;19.97;65.52;96651.06;1812968;77;27362;-85
2021/07/05 07:26:55;;;;;;;10.28;7.83;;;;;;;20.07;65.23;96647.66;1812603;77;25643;-83
2021/07/05 07:29:22;;;;;;;9.23;8.33;;;;;;;20.20;64.96;96652.19;1812318;78;25690;-83
2021/07/05 07:31:48;;;;;;;9.18;8.20;;;;;;;20.33;65.01;96648.76;1812675;77;25817;-82
2021/07/05 07:34:15;;;;;;;10.10;7.80;;;;;;;20.53;64.39;96640.90;1812809;79;25718;-82
2021/07/05 07:36:42;;;;;;;9.90;7.97;;;;;;;20.65;64.20;96638.55;1812755;77;28370;-84
2021/07/05 07:39:13;;;;;;;13.10;7.80;;;;;;;20.75;63.68;96632.92;1812451;77;25720;-83
2021/07/05 07:41:37;;;;;;;11.57;7.28;;;;;;;20.85;63.28;96634.16;1812451;79;25760;-84
2021/07/05 07:44:05;;;;;;;8.85;7.95;;;;;;;20.98;63.39;96625.19;1788885;79;26655;-84
2021/07/05 07:46:32;;;;;;;9.90;7.87;;;;;;;21.14;63.54;96627.94;1780618;79;25753;-85
2021/07/05 07:48:58;;;;;;;12.07;7.67;;;;;;;21.27;62.93;96625.59;1801736;77;27402;-84
2021/07/05 07:51:25;;;;;;;7.87;6.83;;;;;;;21.40;62.48;96622.09;1812604;79;25641;-84
2021/07/05 07:53:53;;;;;;;9.23;7.70;;;;;;;21.55;62.50;96617.17;1812792;77;25649;-84
2021/07/05 07:56:20;;;;;;;7.78;6.97;;;;;;;21.71;62.24;96620.48;1812823;79;25844;-85
2021/07/05 07:58:46;;;;;;;8.68;6.47;;;;;;;21.86;61.65;96617.44;1812736;79;25719;-84
2021/07/05 08:01:13;;;;;;;9.28;6.95;;;;;;;22.07;61.02;96625.36;1812588;78;27563;-84
2021/07/05 08:03:40;;;;;;;7.10;6.40;;;;;;;22.36;60.37;96620.38;1812630;77;26321;-85
2021/07/05 08:06:08;;;;;;;7.50;6.70;;;;;;;23.29;60.02;96623.61;1778315;79;37319;-84
2021/07/05 08:08:35;;;;;;;8.10;7.15;;;;;;;23.29;60.02;96623.61;1812696;77;25781;-84
2021/07/05 08:11:01;;;;;;;8.88;6.22;;;;;;;23.76;59.34;96615.88;1812441;79;25640;-84
2021/07/05 08:13:28;;;;;;;6.85;5.62;;;;;;;24.28;58.52;96623.86;1812695;79;27011;-84
2021/07/05 08:15:54;;;;;;;5.62;5.12;;;;;;;24.77;57.56;96617.20;1812708;77;25824;-85
2021/07/05 08:18:21;;;;;;;6.65;5.85;;;;;;;25.24;56.56;96615.50;1817924;78;25703;-85
2021/07/05 08:20:49;;;;;;;7.72;5.47;;;;;;;25.69;55.90;96621.55;1806256;77;25717;-85
2021/07/05 08:23:15;;;;;;;5.78;5.17;;;;;;;26.02;54.28;96616.83;1820535;77;25751;-84
2021/07/05 08:25:44;;;;;;;6.03;4.75;;;;;;;26.30;53.31;96615.31;1818160;78;28156;-84
2021/07/05 08:28:11;;;;;;;5.37;4.90;;;;;;;26.54;52.36;96614.72;1799444;78;25710;-84
2021/07/05 08:30:37;;;;;;;6.53;4.45;;;;;;;26.73;51.56;96611.52;1805329;77;26308;-86
2021/07/05 08:33:04;;;;;;;6.30;4.75;;;;;;;27.05;51.50;96613.61;1803179;77;25822;-85
2021/07/05 08:35:30;;;;;;;6.20;4.83;;;;;;;27.39;50.53;96604.25;1793149;77;25769;-86
2021/07/05 08:37:57;;;;;;;5.50;4.75;;;;;;;27.73;49.55;96605.91;1789685;78;28035;-86
2021/07/05 08:40:25;;;;;;;4.70;4.33;;;;;;;28.01;48.09;96605.31;1790121;77;26385;-86
2021/07/05 08:42:55;;;;;;;5.22;4.05;;;;;;;28.28;47.33;96604.11;1811695;78;25899;-86
2021/07/05 08:45:22;;;;;;;6.60;4.30;;;;;;;28.59;46.40;96606.92;1789001;78;26515;-85
2021/07/05 08:47:52;;;;;;;4.72;4.33;;;;;;;28.79;46.00;96607.40;1794760;78;25768;-84
2021/07/05 08:50:21;;;;;;;4.60;3.90;;;;;;;28.99;45.55;96600.89;1821259;78;27523;-85
2021/07/05 08:52:47;;;;;;;4.53;4.05;;;;;;;29.32;44.63;96601.30;1821113;78;25890;-86
2021/07/05 08:55:19;;;;;;;4.67;4.20;;;;;;;29.62;43.71;96606.77;1821411;77;26430;-83
2021/07/05 08:57:46;;;;;;;4.85;4.35;;;;;;;29.90;43.39;96605.38;1821799;77;25845;-83
2021/07/05 09:00:19;;;;;;;7.17;4.40;;;;;;;30.15;42.91;96601.91;1821530;78;25776;-83
2021/07/05 09:02:48;;;;;;;5.70;4.65;;;;;;;30.27;42.49;96606.59;1821366;78;28083;-82
2021/07/05 09:05:15;;;;;;;5.75;4.20;;;;;;;30.34;42.53;96603.39;1821373;78;25832;-83
2021/07/05 09:08:02;;;;;;;4.87;4.20;;;;;;;30.56;41.89;96603.95;1821416;78;26226;-84
2021/07/05 09:10:48;;;;;;;6.80;4.28;;;;;;;30.80;42.05;96605.16;1821484;78;26407;-83
2021/07/05 09:13:24;;;;;;;5.15;4.65;;;;;;;30.65;40.01;96601.82;1821408;77;25646;-83
2021/07/05 09:15:59;;;;;;;4.85;4.45;;;;;;;30.35;39.87;96602.23;1821536;77;27370;-83
2021/07/05 09:18:43;;;;;;;4.33;3.92;;;;;;;29.95;39.17;96599.54;1815758;78;25746;-83
2021/07/05 09:21:23;;;;;;;;;;;;;;;29.36;39.12;96601.61;1815942;77;25819;-82
2021/07/05 09:24:06;;;;;;;5.33;4.67;;;;;;;28.79;38.43;96607.98;1811738;77;35211;-83
2021/07/05 09:26:43;;;;;;;4.85;4.45;;;;;;;28.46;40.25;96612.23;1812787;79;25683;-82
2021/07/05 09:29:18;;;;;;;7.40;4.72;;;;;;;28.26;40.82;96610.57;1812455;79;28198;-82
2021/07/05 09:31:59;;;;;;;4.87;4.47;;;;;;;28.20;40.60;96613.35;1812352;79;25881;-84
2021/07/05 09:34:33;;;;;;;7.27;4.67;;;;;;;28.21;40.11;96609.42;1813050;77;25280;-83
2021/07/05 09:37:23;;;;;;;4.67;3.92;;;;;;;28.31;39.88;96621.46;1812786;79;26483;-83
2021/07/05 09:40:07;;;;;;;4.37;3.98;;;;;;;28.65;39.76;96618.02;1812996;77;25807;-84
2021/07/05 09:42:41;;;;;;;5.37;4.75;;;;;;;29.09;38.84;96611.31;1809142;79;27437;-84
2021/07/05 09:45:25;;;;;;;8.48;4.37;;;;;;;29.43;38.44;96610.80;1780619;79;26582;-85
2021/07/05 09:48:17;;;;;;;4.45;4.15;;;;;;;29.59;38.20;96611.64;1787073;79;25789;-85
2021/07/05 09:50:46;;;;;;;5.22;4.30;;;;;;;29.88;38.04;96609.67;1813163;78;35340;-83
2021/07/05 09:53:35;;;;;;;6.85;4.65;;;;;;;30.08;37.39;96617.01;1812855;77;25824;-86
2021/07/05 09:56:24;;;;;;;5.67;4.20;;;;;;;29.94;36.79;96613.25;1743106;81;27561;-85
2021/07/05 09:58:58;;;;;;;4.33;3.92;;;;;;;29.64;37.00;96617.55;1743168;82;25769;-84
2021/07/05 10:01:45;;;;;;;4.83;4.42;;;;;;;29.41;36.40;96613.11;1743271;80;25820;-85
2021/07/05 10:04:27;;;;;;;4.85;4.47;;;;;;;29.17;36.22;96611.75;1742893;81;26733;-85
2021/07/05 10:06:57;;;;;;;4.83;4.33;;;;;;;28.92;36.49;96621.52;1743250;81;26485;-86
2021/07/05 10:09:39;;;;;;;5.53;5.00;;;;;;;28.80;36.88;96625.69;1743190;82;27578;-85
2021/07/05 10:12:28;;;;;;;5.47;4.97;;;;;;;28.75;36.79;96623.09;1742530;80;25795;-84
2021/07/05 10:15:05;;;;;;;8.43;5.33;;;;;;;28.62;37.28;96628.41;1743091;80;25846;-84
2021/07/05 10:17:39;;;;;;;5.58;4.95;;;;;;;28.42;38.46;96623.20;1743361;78;26367;-83
2021/07/05 10:20:11;;;;;;;5.42;4.92;;;;;;;28.29;38.28;96625.16;1745542;80;25758;-83
2021/07/05 10:22:44;;;;;;;5.42;4.92;;;;;;;27.99;38.99;96622.88;1745634;82;27403;-84
2021/07/05 10:25:13;;;;;;;6.37;4.90;;;;;;;27.86;38.69;96617.86;1745704;82;26225;-84
2021/07/05 10:27:41;;;;;;;6.53;4.67;;;;;;;27.86;38.79;96626.18;1745843;82;25771;-84
2021/07/05 10:30:12;;;;;;;6.45;5.17;;;;;;;27.80;38.57;96628.91;1745791;81;25749;-84
2021/07/05 10:32:40;;;;;;;5.30;4.80;;;;;;;27.72;38.81;96622.89;1777946;80;25703;-84
2021/07/05 10:35:10;;;;;;;5.42;4.92;;;;;;;27.64;38.89;96630.14;1786159;80;27589;-84
2021/07/05 10:38:11;;;;;;;6.87;5.10;;;;;;;27.56;38.93;96624.89;1785738;79;25838;-83
2021/07/05 10:40:45;;;;;;;5.80;4.42;;;;;;;27.52;38.95;96624.52;1752617;80;25826;-82
2021/07/05 10:43:16;;;;;;;5.37;4.87;;;;;;;27.34;39.32;96629.38;1785886;79;25785;-86
2021/07/05 10:45:52;;;;;;;6.97;4.67;;;;;;;27.14;40.05;96631.00;1786276;78;25705;-83
2021/07/05 10:48:37;;;;;;;7.12;5.37;;;;;;;27.04;40.10;96624.48;1786080;79;27409;-83
2021/07/05 10:51:05;;;;;;;5.80;4.80;;;;;;;27.07;40.03;96630.70;1785999;80;25898;-83
2021/07/05 10:53:39;;;;;;;6.65;4.90;;;;;;;27.10;39.59;96628.66;1785829;80;25775;-84
2021/07/05 10:56:32;;;;;;;5.30;4.90;;;;;;;27.10;39.53;96625.08;1785763;80;25818;-84
2021/07/05 10:59:16;;;;;;;5.90;5.30;;;;;;;27.01;40.04;96616.02;1785088;80;25699;-84
2021/07/05 11:01:46;;;;;;;5.72;5.20;;;;;;;27.17;39.70;96612.91;1660735;84;28241;-82
2021/07/05 11:04:28;;;;;;;5.83;4.80;;;;;;;27.48;39.70;96611.91;1660557;84;25841;-84
2021/07/05 11:06:53;;;;;;;6.72;5.30;;;;;;;27.77;40.21;96612.41;1630820;86;25781;-85
2021/07/05 11:09:23;;;;;;;5.55;5.00;;;;;;;27.91;40.52;96615.67;1654725;86;25862;-84
2021/07/05 11:11:59;;;;;;;5.10;4.45;;;;;;;28.11;39.63;96618.73;1672976;84;25808;-86
2021/07/05 11:14:34;;;;;;;5.50;4.92;;;;;;;28.38;39.42;96615.94;1670073;84;27451;-84
2021/07/05 11:17:11;;;;;;;5.75;4.35;;;;;;;28.55;38.34;96621.25;1672105;83;25871;-85
2021/07/05 11:19:48;;;;;;;5.67;4.78;;;;;;;28.70;39.92;96621.95;1696346;82;26409;-84
2021/07/05 11:22:27;;;;;;;7.53;4.60;;;;;;;28.80;39.28;96622.91;1703341;83;25893;-85
2021/07/05 11:25:22;;;;;;;5.67;4.50;;;;;;;28.90;38.87;96622.44;1709208;83;25924;-84
2021/07/05 11:28:04;;;;;;;5.28;4.83;;;;;;;29.08;39.42;96619.41;1708856;83;27486;-84
2021/07/05 11:30:49;;;;;;;5.67;4.72;;;;;;;29.33;38.53;96620.41;1702840;83;25923;-84
2021/07/05 11:33:17;;;;;;;6.20;4.67;;;;;;;29.51;38.20;96612.61;1699023;82;25837;-88
2021/07/05 11:36:00;;;;;;;;;;;;;;;29.69;38.88;96612.55;1700035;82;25881;-87
2021/07/05 11:38:39;;;;;;;5.90;4.83;;;;;;;29.92;37.25;96618.36;1721164;78;25730;-84